SKSP/ADZ METAR and TAF weather

Enter ICAO airport designator
Station Type Date Time Source
SKSP METAR 2019/06/26 05:00 UTC NOAA

SKSP 260500Z 07014KT 9999 FEW014 OVC070 28/25 A2991


Station Type Date Time Source
SKSP Decoded METAR 2019/06/26 05:00 UTC NOAA

San Andres Isla / Sesquicentenario, Colombia (SKSP) 12-35N 081-43W 6M
Jun 26, 2019 - 01:00 AM EDT / 2019.06.26 0500 UTC
Wind: from the ENE (070 degrees) at 16 MPH (14 KT):0
Visibility: greater than 7 mile(s):0
Sky conditions: overcast
Temperature: 82 F (28 C)
Dew Point: 77 F (25 C)
Relative Humidity: 83%
Pressure (altimeter): 29.91 in. Hg (1012 hPa)
ob: SKSP 260500Z 07014KT 9999 FEW014 OVC070 28/25 A2991
cycle: 5

Station Type Date Time Source
SKSP TAF 2019/06/26 06:45 UTC NOAA

TAF SKSP 260430Z 2606/2706 09012KT 9999 SCT018 BKN080
TEMPO 2610/2615 5000 DZRA SCT012CB BKN070 TX31/2619Z TN26/2611Z

Example: see airport list